Airfield :
LOGIN :

Register | Disclaimer

   EN    FR    IT 

 










Legend :    VFR   Marginal VFR   IFR   Intensive IFR   Very Intensive IFR
Visi :
Ceiling :
>= 8 km
>= 3000ft
5 to 8 km
1000 to 3000 ft
1500m to 5 km
500 to 1000 ft
800 to 1500m
200 to 500 ft
< 800m
< 200 ft
Symbols :   Thunderstorms  Fog  Heavy snow  Heavy precipitations  Wind > 20 kt
SIGMETs :     Misc.  Thunderstorms  Icing  Turbulence  Mountain Waves  Volcanic Ashes







- Airport Elevation : 11 ft
- IATA code : MJV


LELC - Murcia San Javier

CURRENT METAR :
  • 191300Z 12004KT 060V180 9999 FEW025 19/14 Q1021 NOSIG

EXPIRED METARs :
  • 191200Z 13003KT 100V160 9999 FEW025 18/12 Q1022 NOSIG
  • 191100Z 17003KT 120V210 9999 FEW025 19/13 Q1022 NOSIG

TAF TAF LELC
Valid from the 19 at 12:00 until the 20 at 12:00 UTC


191100Z 1912/2012 11005KT 9999 FEW020 TX20/1913Z TN07/2007Z
PROB30
TEMPO 2003/2007 2000 BR SCT003
No reported NOTAMs for that airfield.



MET'MAP, your aeronautical weather chart ! - Copyright ORBIFLY December 2007 - Disclaimer

ORBIFLY MET'MAP TEAM :

Programming & Development : Alexandra Zaïnal
Concept & Development : Baudouin d'Aumeries
Co-Development & Prog : Marc-Olivier Méhu
Technical & hardware support : Manuel Goepfert

Contact : metmap@orbifly.com




SOURCES & CREDITS :

   NOAA